Time;durP1;ratioP1;P1;durP2;ratioP2;P2;SDS_P1;SDS_P2;PMS_P1;PMS_P2;Temp;Humidity;BMP_temperature;BMP_pressure;BME280_temperature;BME280_humidity;BME280_pressure;Samples;Min_cycle;Max_cycle;Signal;HPM_P1;HPM_P2
2022/11/20 00:01:22;;;;;;;0.10;0.10;;;;;;;-2.13;83.04;99777.81;6175634;23;19924;-71
2022/11/20 00:03:50;;;;;;;0.10;0.10;;;;;;;-2.19;82.97;99778.59;6175058;23;20027;-71
2022/11/20 00:06:18;;;;;;;0.10;0.10;;;;;;;-2.22;83.14;99776.31;6147991;23;20055;-69
2022/11/20 00:08:44;;;;;;;0.10;0.10;;;;;;;-2.18;83.32;99782.94;6147266;23;20029;-70
2022/11/20 00:11:12;;;;;;;0.17;0.17;;;;;;;-2.14;83.21;99771.66;6173937;23;20032;-70
2022/11/20 00:13:39;;;;;;;0.10;0.10;;;;;;;-2.16;83.00;99776.38;6176544;23;20096;-70
2022/11/20 00:16:07;;;;;;;0.10;0.10;;;;;;;-2.22;83.03;99782.50;6184973;23;20055;-70
2022/11/20 00:18:35;;;;;;;0.10;0.10;;;;;;;-2.26;82.91;99783.06;6185931;23;20021;-70
2022/11/20 00:21:02;;;;;;;0.17;0.17;;;;;;;-2.25;83.10;99785.56;6146512;23;20445;-70
2022/11/20 00:23:28;;;;;;;0.10;0.10;;;;;;;-2.26;83.01;99783.91;6183381;23;20021;-70
2022/11/20 00:25:53;;;;;;;0.10;0.10;;;;;;;-2.31;82.85;99781.78;6185654;23;20553;-70
2022/11/20 00:28:19;;;;;;;0.10;0.10;;;;;;;-2.28;82.80;99785.94;6173143;23;20021;-70
2022/11/20 00:30:45;;;;;;;0.10;0.10;;;;;;;-2.32;82.84;99790.84;6182753;23;20025;-70
2022/11/20 00:33:11;;;;;;;0.15;0.15;;;;;;;-2.36;82.78;99792.25;6182481;23;20032;-70
2022/11/20 00:35:39;;;;;;;0.10;0.10;;;;;;;-2.39;82.74;99781.94;6184514;23;20156;-70
2022/11/20 00:38:05;;;;;;;0.10;0.10;;;;;;;-2.43;82.63;99786.81;6187032;23;20077;-71
2022/11/20 00:40:30;;;;;;;0.10;0.10;;;;;;;-2.44;82.62;99784.31;6177041;23;20465;-71
2022/11/20 00:42:56;;;;;;;0.10;0.10;;;;;;;-2.48;82.47;99783.06;6182203;23;20503;-71
2022/11/20 00:45:23;;;;;;;0.10;0.10;;;;;;;-2.45;82.27;99780.84;6187922;23;20025;-71
2022/11/20 00:47:49;;;;;;;0.10;0.10;;;;;;;-2.48;82.06;99783.06;6151308;23;20334;-68
2022/11/20 00:50:15;;;;;;;0.15;0.10;;;;;;;-2.50;82.04;99780.56;6161394;23;20039;-67
2022/11/20 00:52:42;;;;;;;0.10;0.10;;;;;;;-2.51;81.80;99786.13;6150798;23;20024;-67
2022/11/20 00:55:08;;;;;;;0.10;0.10;;;;;;;-2.58;81.91;99783.34;6177545;23;20021;-67
2022/11/20 00:57:34;;;;;;;0.10;0.10;;;;;;;-2.62;82.01;99782.91;6148729;23;20334;-67
2022/11/20 01:00:00;;;;;;;0.10;0.10;;;;;;;-2.60;82.21;99777.38;6176741;23;20104;-67
2022/11/20 01:02:26;;;;;;;0.10;0.10;;;;;;;-2.59;81.90;99779.84;6185281;23;20052;-66
2022/11/20 01:04:52;;;;;;;0.10;0.10;;;;;;;-2.57;81.96;99780.50;6180210;23;20432;-67
2022/11/20 01:07:18;;;;;;;0.10;0.10;;;;;;;-2.58;81.61;99786.03;6185824;23;20060;-68
2022/11/20 01:09:45;;;;;;;0.10;0.10;;;;;;;-2.62;81.61;99784.75;6187050;23;20087;-67
2022/11/20 01:12:11;;;;;;;0.10;0.10;;;;;;;-2.63;81.94;99786.59;6175532;23;20028;-67
2022/11/20 01:14:37;;;;;;;0.10;0.10;;;;;;;-2.62;81.50;99790.94;6184698;23;20456;-67
2022/11/20 01:17:04;;;;;;;0.10;0.10;;;;;;;-2.60;81.84;99780.84;6187151;23;20540;-67
2022/11/20 01:19:30;;;;;;;0.10;0.10;;;;;;;-2.59;81.75;99771.81;6185763;23;20021;-67
2022/11/20 01:21:56;;;;;;;0.10;0.10;;;;;;;-2.58;81.49;99778.00;6177704;23;20036;-67
2022/11/20 01:24:22;;;;;;;0.10;0.10;;;;;;;-2.62;81.58;99779.41;6152240;23;20468;-69
2022/11/20 01:26:51;;;;;;;0.10;0.10;;;;;;;-2.64;81.38;99784.94;6185712;23;20365;-67
2022/11/20 01:29:20;;;;;;;0.10;0.10;;;;;;;-2.68;81.33;99789.03;6174623;23;20051;-67
2022/11/20 01:31:47;;;;;;;0.10;0.10;;;;;;;-2.71;81.50;99776.03;6159089;23;20460;-68
2022/11/20 01:34:14;;;;;;;0.10;0.10;;;;;;;-2.64;81.44;99786.81;6148855;23;20021;-67
2022/11/20 01:36:41;;;;;;;0.10;0.10;;;;;;;-2.57;81.69;99788.53;6185173;23;20075;-68
2022/11/20 01:39:11;;;;;;;0.20;0.20;;;;;;;-2.48;81.42;99788.41;6156978;23;20289;-67
2022/11/20 01:44:47;;;;;;;0.10;0.10;;;;;;;-2.51;81.29;99802.19;6182771;23;20071;-66
2022/11/20 01:47:16;;;;;;;0.10;0.10;;;;;;;-2.56;81.72;99792.03;6177059;23;20052;-68
2022/11/20 01:49:48;;;;;;;0.10;0.10;;;;;;;-2.60;81.56;99794.25;6189611;23;20024;-68
2022/11/20 01:52:18;;;;;;;0.10;0.10;;;;;;;-2.60;81.58;99801.47;6176957;23;20044;-69
2022/11/20 01:54:48;;;;;;;0.10;0.10;;;;;;;-2.58;81.39;99802.09;6152019;23;20025;-68
2022/11/20 01:57:16;;;;;;;0.10;0.10;;;;;;;-2.54;81.55;99807.91;6175039;23;20284;-67
2022/11/20 01:59:49;;;;;;;0.10;0.10;;;;;;;-2.56;81.27;99813.44;6159057;23;21367;-67
2022/11/20 02:02:19;;;;;;;0.10;0.10;;;;;;;-2.66;81.50;99811.06;6174291;23;20094;-67
2022/11/20 02:04:47;;;;;;;0.10;0.10;;;;;;;-2.67;81.85;99817.44;6149532;23;20017;-68
2022/11/20 02:07:13;;;;;;;0.10;0.10;;;;;;;-2.63;81.78;99817.91;6156838;23;20049;-67
2022/11/20 02:09:39;;;;;;;0.10;0.10;;;;;;;-2.65;81.96;99823.44;6157662;23;20017;-68
2022/11/20 02:13:42;;;;;;;0.10;0.10;;;;;;;-2.62;82.00;99828.41;6188040;23;20032;-67
2022/11/20 02:14:53;;;;;;;0.10;0.10;;;;;;;-2.69;81.96;99826.69;6162267;23;20021;-67
2022/11/20 02:17:20;;;;;;;0.10;0.10;;;;;;;-2.67;82.23;99833.50;6159567;23;20551;-67
2022/11/20 02:19:46;;;;;;;0.10;0.10;;;;;;;-2.77;82.01;99812.38;6160645;23;20457;-67
2022/11/20 02:22:19;;;;;;;0.10;0.10;;;;;;;-2.70;82.02;99828.53;6184136;23;20115;-67
2022/11/20 02:24:49;;;;;;;0.10;0.10;;;;;;;-2.70;82.00;99833.88;6182227;23;20021;-67
2022/11/20 02:27:17;;;;;;;0.10;0.10;;;;;;;-2.71;82.10;99838.41;6183515;23;20465;-67
2022/11/20 02:29:48;;;;;;;0.10;0.10;;;;;;;-2.74;82.01;99841.47;6185485;23;20016;-67
2022/11/20 02:32:19;;;;;;;0.10;0.10;;;;;;;-2.76;82.43;99842.66;6150505;23;20089;-67
2022/11/20 02:34:45;;;;;;;0.10;0.10;;;;;;;-2.71;82.38;99853.66;6177333;23;20051;-67
2022/11/20 02:37:12;;;;;;;0.10;0.10;;;;;;;-2.69;82.28;99842.75;6122495;23;20116;-67
2022/11/20 02:39:38;;;;;;;0.20;0.20;;;;;;;-2.68;82.48;99850.59;6149817;23;20021;-67
2022/11/20 02:42:05;;;;;;;0.10;0.10;;;;;;;-2.66;82.43;99850.38;6183356;23;20052;-67
2022/11/20 02:44:31;;;;;;;0.10;0.10;;;;;;;-2.62;82.49;99851.69;6182534;23;20030;-67
2022/11/20 02:46:59;;;;;;;0.10;0.10;;;;;;;-2.61;82.28;99846.13;6148847;23;20400;-67
2022/11/20 02:49:25;;;;;;;0.10;0.10;;;;;;;-2.60;82.31;99857.69;6187442;23;20021;-67
2022/11/20 02:51:51;;;;;;;0.10;0.10;;;;;;;-2.63;82.11;99856.22;6183593;23;20493;-67
2022/11/20 02:54:17;;;;;;;0.10;0.10;;;;;;;-2.64;82.02;99846.53;6175683;23;20067;-67
2022/11/20 02:56:43;;;;;;;0.10;0.10;;;;;;;-2.62;81.62;99854.38;6177414;23;20104;-67
2022/11/20 02:59:11;;;;;;;0.10;0.10;;;;;;;-2.64;81.51;99854.56;6146676;23;20095;-66
2022/11/20 03:01:37;;;;;;;0.10;0.10;;;;;;;-2.68;81.46;99850.59;6187671;23;20021;-67
2022/11/20 03:04:03;;;;;;;0.10;0.10;;;;;;;-2.66;81.47;99853.06;6150316;23;20028;-67
2022/11/20 03:06:29;;;;;;;0.10;0.10;;;;;;;-2.65;81.24;99858.25;6150081;23;20091;-67
2022/11/20 03:08:55;;;;;;;0.10;0.10;;;;;;;-2.66;81.07;99843.19;6157628;23;20020;-68
2022/11/20 03:11:21;;;;;;;0.10;0.10;;;;;;;-2.71;81.17;99843.75;6183113;23;20025;-67
2022/11/20 03:13:47;;;;;;;0.10;0.10;;;;;;;-2.67;81.26;99857.59;6183245;23;20047;-66
2022/11/20 03:16:16;;;;;;;0.10;0.10;;;;;;;-2.74;80.83;99854.84;6185783;23;20159;-71
2022/11/20 03:18:43;;;;;;;0.10;0.10;;;;;;;-2.68;80.81;99860.47;6175624;23;20037;-67
2022/11/20 03:21:10;;;;;;;0.10;0.10;;;;;;;-2.65;80.99;99860.09;6157893;23;20071;-67
2022/11/20 03:23:36;;;;;;;0.20;0.20;;;;;;;-2.62;80.83;99860.53;6134489;23;20053;-67
2022/11/20 03:26:14;;;;;;;0.10;0.10;;;;;;;-2.54;80.88;99866.81;6150117;23;20035;-67
2022/11/20 03:28:41;;;;;;;0.10;0.10;;;;;;;-2.76;80.68;99834.63;6174068;23;20365;-67
2022/11/20 03:31:09;;;;;;;0.10;0.10;;;;;;;-2.56;80.95;99872.34;6147288;23;20040;-67
2022/11/20 03:33:37;;;;;;;0.10;0.10;;;;;;;-2.62;80.59;99875.78;6148976;23;20025;-68
2022/11/20 03:36:05;;;;;;;0.10;0.10;;;;;;;-2.61;80.95;99867.56;6150848;23;20024;-68
2022/11/20 03:38:31;;;;;;;0.10;0.10;;;;;;;-2.61;80.86;99872.09;6122467;23;20115;-67
2022/11/20 03:41:01;;;;;;;0.10;0.10;;;;;;;-2.67;80.85;99865.63;6149919;23;20360;-67
2022/11/20 03:43:28;;;;;;;0.17;0.17;;;;;;;-2.66;81.09;99864.63;6184850;23;20028;-67
2022/11/20 03:45:54;;;;;;;0.10;0.10;;;;;;;-2.71;81.04;99857.13;6174953;23;20025;-67
2022/11/20 03:48:20;;;;;;;0.10;0.10;;;;;;;-2.66;80.98;99871.81;6148829;23;20516;-70
2022/11/20 03:50:47;;;;;;;0.10;0.10;;;;;;;-2.61;80.93;99872.09;6184387;23;20037;-70
2022/11/20 03:53:13;;;;;;;0.10;0.10;;;;;;;-2.57;80.83;99868.88;6181915;23;20047;-71
2022/11/20 03:55:39;;;;;;;0.10;0.10;;;;;;;-2.55;80.62;99874.00;6144855;23;20071;-70
2022/11/20 03:58:05;;;;;;;0.10;0.10;;;;;;;-2.53;80.28;99884.56;6175534;23;20028;-71
2022/11/20 04:00:31;;;;;;;0.10;0.10;;;;;;;-2.62;80.19;99887.31;6182683;23;20055;-71
2022/11/20 04:03:01;;;;;;;0.10;0.10;;;;;;;-2.66;80.59;99888.72;6184209;23;20025;-71
2022/11/20 04:05:27;;;;;;;0.10;0.10;;;;;;;-2.66;80.58;99883.34;6174716;23;20040;-70
2022/11/20 04:07:54;;;;;;;0.10;0.10;;;;;;;-2.61;80.46;99891.66;6184265;23;20488;-69
2022/11/20 04:10:20;;;;;;;0.10;0.10;;;;;;;-2.60;80.28;99892.50;6146959;23;20391;-69
2022/11/20 04:12:46;;;;;;;0.10;0.10;;;;;;;-2.67;80.30;99875.50;6122733;23;20071;-71
2022/11/20 04:15:12;;;;;;;0.10;0.10;;;;;;;-2.53;80.13;99885.38;6158018;23;20410;-67
2022/11/20 04:17:38;;;;;;;0.13;0.13;;;;;;;-2.54;79.91;99886.38;6184663;23;20104;-67
2022/11/20 04:20:05;;;;;;;0.10;0.10;;;;;;;-2.61;79.97;99899.69;6184918;23;20021;-67
2022/11/20 04:22:31;;;;;;;0.10;0.10;;;;;;;-2.65;80.16;99898.41;6152365;23;20079;-67
2022/11/20 04:24:59;;;;;;;0.10;0.10;;;;;;;-2.64;80.22;99899.25;6148238;23;20051;-67
2022/11/20 04:27:25;;;;;;;0.20;0.20;;;;;;;-2.62;80.29;99897.22;6185398;23;20095;-67
2022/11/20 04:29:50;;;;;;;0.10;0.10;;;;;;;-2.58;80.08;99901.19;6185164;23;20476;-67
2022/11/20 04:32:16;;;;;;;0.10;0.10;;;;;;;-2.60;79.79;99901.34;6188062;23;20080;-67
2022/11/20 04:34:42;;;;;;;0.10;0.10;;;;;;;-2.60;79.64;99908.56;6161532;23;20036;-67
2022/11/20 04:37:08;;;;;;;0.20;0.20;;;;;;;-2.67;79.66;99908.47;6188035;23;20115;-67
2022/11/20 04:39:34;;;;;;;0.20;0.20;;;;;;;-2.63;79.84;99919.66;6178602;23;20314;-67
2022/11/20 04:44:46;;;;;;;0.20;0.20;;;;;;;-2.61;79.25;99923.78;6177366;23;20043;-67
2022/11/20 04:47:12;;;;;;;0.10;0.10;;;;;;;-2.66;79.60;99934.22;6151061;23;20469;-67
2022/11/20 04:49:38;;;;;;;0.10;0.10;;;;;;;-2.66;79.67;99934.22;6184582;23;20027;-67
2022/11/20 04:52:04;;;;;;;0.10;0.10;;;;;;;-2.64;79.73;99940.22;6124924;23;20245;-67
2022/11/20 04:54:30;;;;;;;0.10;0.10;;;;;;;-2.61;79.44;99939.03;6175471;23;20116;-69
2022/11/20 04:56:56;;;;;;;0.20;0.10;;;;;;;-2.64;79.32;99948.25;6189947;23;20049;-71
2022/11/20 04:59:24;;;;;;;0.10;0.10;;;;;;;-2.64;79.32;99945.56;6188405;23;20107;-70
2022/11/20 05:01:49;;;;;;;0.10;0.10;;;;;;;-2.62;79.43;99950.75;6150031;23;20079;-71
2022/11/20 05:04:15;;;;;;;0.10;0.10;;;;;;;-2.63;79.43;99946.44;6149941;23;20025;-70
2022/11/20 05:06:41;;;;;;;0.10;0.10;;;;;;;-2.64;79.57;99950.13;6184637;23;20047;-70
2022/11/20 05:09:07;;;;;;;0.22;0.17;;;;;;;-2.63;79.49;99944.56;6150066;23;20025;-70
2022/11/20 05:11:34;;;;;;;0.10;0.10;;;;;;;-2.61;79.25;99945.19;6176450;23;20129;-71
2022/11/20 05:14:00;;;;;;;0.10;0.10;;;;;;;-2.57;79.30;99954.56;6177805;23;20102;-71
2022/11/20 05:16:27;;;;;;;0.10;0.10;;;;;;;-2.52;79.20;99948.63;6148635;23;20490;-71
2022/11/20 05:18:54;;;;;;;0.10;0.10;;;;;;;-2.52;79.00;99961.19;6183770;23;20017;-71
2022/11/20 05:21:20;;;;;;;0.10;0.10;;;;;;;-2.57;78.71;99961.75;6150910;23;20021;-71
2022/11/20 05:23:46;;;;;;;0.10;0.10;;;;;;;-2.63;79.13;99962.50;6176678;23;20048;-71
2022/11/20 05:26:14;;;;;;;0.10;0.10;;;;;;;-2.68;78.91;99971.06;6178711;23;20353;-70
2022/11/20 05:28:40;;;;;;;0.10;0.10;;;;;;;-2.69;79.07;99969.41;6176616;23;20041;-69
2022/11/20 05:31:08;;;;;;;0.10;0.10;;;;;;;-2.74;78.84;99963.75;6187626;23;20025;-70
2022/11/20 05:33:36;;;;;;;0.20;0.20;;;;;;;-2.67;78.66;99974.56;6124173;23;20464;-70
2022/11/20 05:36:02;;;;;;;0.10;0.10;;;;;;;-2.67;79.02;99982.59;6176608;23;20025;-70
2022/11/20 05:38:28;;;;;;;0.10;0.10;;;;;;;-2.65;79.02;99978.72;6149252;23;20429;-70
2022/11/20 05:40:54;;;;;;;0.10;0.10;;;;;;;-2.59;79.05;99983.34;6185462;23;20032;-70
2022/11/20 05:43:20;;;;;;;0.10;0.10;;;;;;;-2.51;78.87;99985.09;6147332;23;20515;-70
2022/11/20 05:45:52;;;;;;;0.10;0.10;;;;;;;-2.45;78.77;99980.84;6149095;23;20024;-70
2022/11/20 05:48:18;;;;;;;0.10;0.10;;;;;;;-2.50;78.20;99981.41;6188094;23;20052;-70
2022/11/20 05:50:45;;;;;;;0.10;0.10;;;;;;;-2.53;78.67;99992.47;6186177;23;20190;-70
2022/11/20 05:53:11;;;;;;;0.10;0.10;;;;;;;-2.53;78.31;99997.03;6126096;23;20416;-70
2022/11/20 05:55:37;;;;;;;0.10;0.10;;;;;;;-2.53;78.05;100003.19;6175000;23;20017;-70
2022/11/20 05:58:03;;;;;;;0.60;0.20;;;;;;;-2.53;77.76;100007.72;6147680;23;20045;-70
2022/11/20 06:00:29;;;;;;;0.10;0.10;;;;;;;-2.56;77.79;100014.28;6159154;23;20480;-70
2022/11/20 06:02:55;;;;;;;0.43;0.10;;;;;;;-2.53;77.55;100021.94;6176403;23;20112;-70
2022/11/20 06:05:21;;;;;;;0.20;0.20;;;;;;;-2.50;77.37;100015.41;6149180;23;20036;-70
2022/11/20 06:07:48;;;;;;;0.20;0.15;;;;;;;-2.51;77.13;100021.75;6173919;23;20035;-70
2022/11/20 06:10:15;;;;;;;0.17;0.17;;;;;;;-2.50;76.43;100026.91;6186241;23;20112;-70
2022/11/20 06:12:41;;;;;;;0.15;0.15;;;;;;;-2.53;76.31;100024.63;6177692;23;20021;-70
2022/11/20 06:15:08;;;;;;;0.10;0.10;;;;;;;-2.48;76.63;100024.91;6149759;23;20396;-70
2022/11/20 06:17:34;;;;;;;0.10;0.10;;;;;;;-2.55;76.51;100026.66;6156235;23;20040;-71
2022/11/20 06:20:00;;;;;;;0.10;0.10;;;;;;;-2.61;76.37;100025.53;6183192;23;20017;-70
2022/11/20 06:22:26;;;;;;;0.20;0.20;;;;;;;-2.62;76.26;100041.78;6175140;23;20017;-70
2022/11/20 06:24:54;;;;;;;0.10;0.10;;;;;;;-2.58;76.60;100037.72;6159085;23;20017;-70
2022/11/20 06:27:20;;;;;;;0.20;0.20;;;;;;;-2.58;76.53;100053.78;6188060;23;20029;-70
2022/11/20 06:29:46;;;;;;;0.10;0.10;;;;;;;-2.56;76.61;100059.81;6176235;23;20060;-70
2022/11/20 06:32:12;;;;;;;0.10;0.10;;;;;;;-2.54;76.81;100056.94;6185014;23;20392;-70
2022/11/20 06:34:38;;;;;;;0.10;0.10;;;;;;;-2.50;76.74;100059.06;6188304;23;20495;-70
2022/11/20 06:37:04;;;;;;;0.15;0.15;;;;;;;-2.45;76.50;100062.03;6174406;23;20037;-70
2022/11/20 06:39:30;;;;;;;0.10;0.10;;;;;;;-2.47;76.43;100065.91;6147081;23;20020;-70
2022/11/20 06:41:57;;;;;;;0.10;0.10;;;;;;;-2.45;76.10;100058.50;6177077;23;20136;-70
2022/11/20 06:44:23;;;;;;;0.10;0.10;;;;;;;-2.47;75.58;100065.91;6175491;23;20063;-70
2022/11/20 06:46:49;;;;;;;0.10;0.10;;;;;;;-2.51;75.76;100062.75;6184835;23;20017;-70
2022/11/20 06:49:15;;;;;;;0.10;0.10;;;;;;;-2.42;75.79;100058.13;6149113;23;20112;-70
2022/11/20 06:51:41;;;;;;;0.10;0.10;;;;;;;-2.36;75.63;100052.06;6172821;23;20102;-70
2022/11/20 06:54:07;;;;;;;0.10;0.10;;;;;;;-2.33;75.39;100038.31;6146347;23;20539;-70
2022/11/20 06:56:34;;;;;;;0.13;0.13;;;;;;;-2.30;75.60;100043.28;6175127;23;20427;-70
2022/11/20 06:59:05;;;;;;;0.10;0.10;;;;;;;-2.21;75.56;100054.75;6173578;23;20017;-69
2022/11/20 07:01:31;;;;;;;0.10;0.10;;;;;;;-2.22;75.26;100061.13;6184785;23;20368;-70
2022/11/20 07:03:58;;;;;;;0.10;0.10;;;;;;;-2.20;75.56;100071.66;6147328;23;20021;-70
2022/11/20 07:06:24;;;;;;;0.10;0.10;;;;;;;-2.21;74.97;100053.94;6173432;23;20564;-70
2022/11/20 07:08:52;;;;;;;0.13;0.13;;;;;;;-2.23;74.60;100064.00;6175015;23;20052;-70
2022/11/20 07:11:17;;;;;;;;;;;;;;;-2.20;74.93;100058.28;6124653;23;20368;-70
2022/11/20 07:13:43;;;;;;;0.10;0.10;;;;;;;-2.17;74.41;100047.19;6150202;23;19926;-70
2022/11/20 07:16:11;;;;;;;0.10;0.10;;;;;;;-2.15;74.28;100054.03;6173747;23;20028;-70
2022/11/20 07:18:37;;;;;;;0.10;0.10;;;;;;;-2.12;74.21;100052.00;6171052;23;20029;-70
2022/11/20 07:21:04;;;;;;;0.10;0.10;;;;;;;-2.07;74.15;100054.94;6154768;23;20021;-70
2022/11/20 07:23:30;;;;;;;0.10;0.10;;;;;;;-2.09;73.92;100054.28;6174040;23;20032;-70
2022/11/20 07:25:56;;;;;;;0.10;0.10;;;;;;;-2.10;73.67;100058.84;6149981;23;20021;-70
2022/11/20 07:28:22;;;;;;;0.10;0.10;;;;;;;-2.17;73.68;100064.09;6174462;23;20036;-70
2022/11/20 07:30:53;;;;;;;0.10;0.10;;;;;;;-2.33;73.74;100048.19;6174064;23;20123;-70
2022/11/20 07:33:20;;;;;;;0.10;0.10;;;;;;;-2.20;73.82;100069.81;6148064;23;20104;-70
2022/11/20 07:35:46;;;;;;;0.10;0.10;;;;;;;-2.16;73.95;100060.41;6185247;23;20367;-70
2022/11/20 07:38:13;;;;;;;0.10;0.10;;;;;;;-2.13;73.95;100059.19;6148889;23;20123;-70
2022/11/20 07:40:39;;;;;;;0.10;0.10;;;;;;;-2.08;73.85;100064.00;6146157;23;20072;-70
2022/11/20 07:43:05;;;;;;;0.10;0.10;;;;;;;-2.03;73.83;100069.63;6147201;23;20033;-70
2022/11/20 07:45:31;;;;;;;0.10;0.10;;;;;;;-1.98;73.87;100058.34;6174256;23;20024;-70
2022/11/20 07:47:57;;;;;;;0.10;0.10;;;;;;;-1.99;73.75;100068.25;6175293;23;20029;-70
2022/11/20 07:50:24;;;;;;;0.10;0.10;;;;;;;-1.99;73.79;100076.28;6175281;23;20432;-70
2022/11/20 07:52:52;;;;;;;0.10;0.10;;;;;;;-1.89;73.83;100078.69;6173622;23;20439;-70
2022/11/20 07:55:19;;;;;;;0.10;0.10;;;;;;;-1.83;73.35;100083.28;6124382;23;20503;-70
2022/11/20 07:57:45;;;;;;;0.10;0.10;;;;;;;-1.83;73.24;100077.94;6175047;23;20085;-70
2022/11/20 08:00:12;;;;;;;0.10;0.10;;;;;;;-1.87;73.11;100084.69;6174198;23;20025;-70
2022/11/20 08:02:39;;;;;;;0.10;0.10;;;;;;;-1.84;73.43;100078.94;6173498;23;20047;-70
2022/11/20 08:05:06;;;;;;;0.10;0.10;;;;;;;-2.01;73.26;100065.75;6180516;23;20025;-70
2022/11/20 08:07:37;;;;;;;0.20;0.20;;;;;;;-1.80;73.41;100084.78;6158747;23;20024;-70
2022/11/20 08:10:04;;;;;;;0.15;0.15;;;;;;;-1.79;73.25;100089.97;6145753;23;20028;-70
2022/11/20 08:15:15;;;;;;;0.10;0.10;;;;;;;-1.79;72.84;100097.16;6183456;23;20024;-67
2022/11/20 08:17:40;;;;;;;0.20;0.20;;;;;;;-1.81;73.31;100099.19;6156039;23;20432;-67
2022/11/20 08:20:07;;;;;;;0.10;0.10;;;;;;;-1.77;72.74;100106.69;6181924;23;20032;-67
2022/11/20 08:22:34;;;;;;;0.20;0.20;;;;;;;-1.72;72.85;100103.44;6171077;23;20021;-67
2022/11/20 08:25:01;;;;;;;0.10;0.10;;;;;;;-1.72;72.62;100095.38;6146563;23;20399;-67
2022/11/20 08:27:31;;;;;;;0.10;0.10;;;;;;;-1.72;72.62;100100.75;6146586;23;20025;-67
2022/11/20 08:29:58;;;;;;;0.20;0.20;;;;;;;-1.70;72.74;100109.47;6183687;23;20040;-67
2022/11/20 08:32:24;;;;;;;0.20;0.20;;;;;;;-1.65;72.91;100107.03;6174996;23;20025;-67
2022/11/20 08:34:49;;;;;;;0.10;0.10;;;;;;;-1.66;72.57;100100.03;6183216;23;20491;-67
2022/11/20 08:37:15;;;;;;;0.10;0.10;;;;;;;-1.68;72.95;100094.03;6177461;23;20103;-67
2022/11/20 08:39:42;;;;;;;0.10;0.10;;;;;;;-1.65;72.89;100098.16;6187554;23;20669;-67
2022/11/20 08:42:09;;;;;;;0.10;0.10;;;;;;;-1.55;72.85;100097.88;6184573;23;20039;-67
2022/11/20 08:44:35;;;;;;;0.10;0.10;;;;;;;-1.54;72.36;100102.22;6149405;23;20060;-67
2022/11/20 08:47:02;;;;;;;0.13;0.13;;;;;;;-1.54;72.34;100094.19;6125949;23;20048;-67
2022/11/20 08:49:28;;;;;;;0.10;0.10;;;;;;;-1.54;72.21;100105.72;6149956;23;20443;-67
2022/11/20 08:51:55;;;;;;;0.20;0.20;;;;;;;-1.50;72.17;100115.06;6176170;23;20021;-67
2022/11/20 08:54:22;;;;;;;0.10;0.10;;;;;;;-1.43;71.97;100117.81;6185766;23;20045;-67
2022/11/20 08:56:48;;;;;;;0.10;0.10;;;;;;;-1.42;71.90;100124.84;6149392;23;20048;-67
2022/11/20 08:59:16;;;;;;;0.10;0.10;;;;;;;-1.49;72.05;100132.81;6158274;23;20025;-68
2022/11/20 09:01:43;;;;;;;0.10;0.10;;;;;;;-1.52;72.52;100141.25;6132209;23;20032;-67
2022/11/20 09:04:09;;;;;;;0.20;0.20;;;;;;;-1.47;72.24;100148.72;6183756;23;20036;-67
2022/11/20 09:06:35;;;;;;;0.38;0.20;;;;;;;-1.52;72.22;100153.84;6121139;23;20025;-66
2022/11/20 09:09:01;;;;;;;0.10;0.10;;;;;;;-1.55;72.63;100164.94;6145058;23;20113;-67
2022/11/20 09:11:27;;;;;;;0.10;0.10;;;;;;;-1.55;72.58;100156.91;6174249;23;20042;-67
2022/11/20 09:13:53;;;;;;;0.20;0.20;;;;;;;-1.52;72.89;100164.56;6187823;23;20020;-67
2022/11/20 09:16:21;;;;;;;0.10;0.10;;;;;;;-1.41;72.77;100157.88;6178562;23;20025;-70
2022/11/20 09:18:50;;;;;;;0.10;0.10;;;;;;;-1.36;72.80;100163.50;6175778;23;20028;-70
2022/11/20 09:21:16;;;;;;;0.17;0.17;;;;;;;-1.31;72.48;100167.31;6151770;23;20036;-70
2022/11/20 09:23:42;;;;;;;0.10;0.10;;;;;;;-1.31;72.15;100167.31;6183222;23;20031;-73
2022/11/20 09:26:10;;;;;;;0.10;0.10;;;;;;;-1.33;72.16;100169.34;6184688;23;20028;-71
2022/11/20 09:28:37;;;;;;;0.10;0.10;;;;;;;-1.46;72.21;100174.53;6143209;23;20024;-70
2022/11/20 09:31:05;;;;;;;0.10;0.10;;;;;;;-1.44;72.62;100191.28;6179448;23;20404;-70
2022/11/20 09:33:32;;;;;;;0.10;0.10;;;;;;;-1.41;72.61;100193.56;6166118;23;20100;-70
2022/11/20 09:35:58;;;;;;;0.20;0.20;;;;;;;-1.50;72.75;100194.72;6172989;23;20021;-70
2022/11/20 09:38:25;;;;;;;0.20;0.20;;;;;;;-1.48;73.59;100208.78;6188446;23;20464;-70
2022/11/20 09:40:57;;;;;;;0.10;0.10;;;;;;;-1.48;73.35;100206.94;6149605;23;20060;-70
2022/11/20 09:43:34;;;;;;;0.20;0.20;;;;;;;-1.46;73.39;100204.03;6154991;23;20052;-70
2022/11/20 09:46:07;;;;;;;0.17;0.17;;;;;;;-1.50;73.90;100203.56;6172931;23;20116;-70
2022/11/20 09:48:48;;;;;;;0.17;0.17;;;;;;;-1.50;74.32;100194.72;6175584;23;20104;-70
2022/11/20 09:51:30;;;;;;;0.40;0.20;;;;;;;-1.50;74.82;100202.75;6150733;23;20017;-71
2022/11/20 09:54:11;;;;;;;0.13;0.13;;;;;;;-1.50;74.70;100206.25;6149863;23;20029;-70
2022/11/20 09:56:41;;;;;;;0.10;0.10;;;;;;;-1.46;75.06;100202.22;6173693;23;20017;-70
2022/11/20 09:59:23;;;;;;;0.10;0.10;;;;;;;-1.43;75.15;100203.66;6183681;23;20060;-66
2022/11/20 10:01:49;;;;;;;0.17;0.17;;;;;;;-1.30;75.19;100206.53;6172659;23;20415;-70
2022/11/20 10:04:20;;;;;;;0.20;0.20;;;;;;;-1.27;74.79;100208.03;6173004;23;20025;-70
2022/11/20 10:06:55;;;;;;;0.10;0.10;;;;;;;-1.33;74.95;100198.00;6181176;23;20071;-66
2022/11/20 10:09:29;;;;;;;0.20;0.20;;;;;;;-1.32;75.03;100207.75;6168116;23;20032;-70
2022/11/20 10:12:09;;;;;;;0.13;0.13;;;;;;;-1.32;74.91;100205.06;6187732;23;20020;-70
2022/11/20 10:14:47;;;;;;;0.10;0.10;;;;;;;-1.27;75.18;100212.53;6186758;23;20108;-67
2022/11/20 10:17:23;;;;;;;0.10;0.10;;;;;;;-1.26;75.14;100212.38;6184259;23;20469;-67
2022/11/20 10:20:11;;;;;;;0.10;0.10;;;;;;;-1.25;75.25;100213.19;6125767;23;20100;-67
2022/11/20 10:22:51;;;;;;;0.35;0.20;;;;;;;-1.32;75.20;100213.94;6151040;23;20021;-71
2022/11/20 10:25:20;;;;;;;0.10;0.10;;;;;;;-1.38;75.50;100217.38;6188073;23;20020;-70
2022/11/20 10:28:06;;;;;;;0.20;0.20;;;;;;;-1.50;75.85;100200.88;6140669;23;20044;-66
2022/11/20 10:30:44;;;;;;;0.22;0.22;;;;;;;-1.46;76.05;100215.63;6097043;23;20124;-71
2022/11/20 10:33:24;;;;;;;0.10;0.10;;;;;;;-1.48;76.37;100206.94;6176734;23;20020;-69
2022/11/20 10:36:00;;;;;;;0.10;0.10;;;;;;;-1.53;76.78;100217.38;6146538;23;20440;-71
2022/11/20 10:38:34;;;;;;;0.22;0.22;;;;;;;-1.51;77.02;100218.00;6169710;23;20117;-67
2022/11/20 10:43:50;;;;;;;0.10;0.10;;;;;;;-1.32;76.99;100215.81;6146076;23;20017;-66
2022/11/20 10:46:21;;;;;;;0.20;0.20;;;;;;;-1.30;77.14;100221.81;6170097;23;20404;-67
2022/11/20 10:48:48;;;;;;;0.20;0.20;;;;;;;-1.40;77.09;100215.88;6179330;23;20460;-66
2022/11/20 10:51:30;;;;;;;0.10;0.10;;;;;;;-1.36;77.37;100235.94;6173099;23;20077;-66
2022/11/20 10:54:12;;;;;;;0.10;0.10;;;;;;;-1.44;77.54;100231.50;6175788;23;20491;-67
2022/11/20 10:56:41;;;;;;;0.20;0.20;;;;;;;-1.48;77.94;100240.97;6173410;23;20044;-66
2022/11/20 10:59:35;;;;;;;0.20;0.20;;;;;;;-1.47;78.04;100237.25;6174239;23;20045;-67
2022/11/20 11:02:01;;;;;;;0.20;0.20;;;;;;;-1.46;77.90;100234.41;6173380;23;20025;-67
2022/11/20 11:04:35;;;;;;;0.10;0.10;;;;;;;-1.51;77.85;100228.75;6184984;23;20327;-67
2022/11/20 11:07:10;;;;;;;0.20;0.20;;;;;;;-1.76;77.63;100215.59;6155585;23;20025;-69
2022/11/20 11:09:41;;;;;;;0.13;0.13;;;;;;;-1.69;77.81;100244.34;6180037;23;20134;-67
2022/11/20 11:12:09;;;;;;;0.20;0.20;;;;;;;-1.75;78.44;100249.44;6141541;23;20071;-67
2022/11/20 11:14:41;;;;;;;;;;;;;;;-1.75;78.37;100251.28;6172806;23;20020;-66
2022/11/20 11:17:29;;;;;;;0.10;0.10;;;;;;;-1.83;78.27;100246.00;6184527;23;19928;-67
2022/11/20 11:20:02;;;;;;;;;;;;;;;-1.90;78.45;100248.59;6122232;23;20032;-67
2022/11/20 11:22:32;;;;;;;0.15;0.15;;;;;;;-1.88;78.62;100246.56;6172076;23;20406;-68
2022/11/20 11:24:59;;;;;;;0.20;0.20;;;;;;;-1.87;78.43;100257.09;6144376;23;20322;-67
2022/11/20 11:27:25;;;;;;;0.10;0.10;;;;;;;-1.84;78.39;100253.22;6174567;23;20020;-66
2022/11/20 11:30:02;;;;;;;0.10;0.10;;;;;;;-1.87;78.58;100242.84;6148042;23;20025;-70
2022/11/20 11:32:29;;;;;;;0.10;0.10;;;;;;;-1.86;78.64;100250.72;6184838;23;20491;-70
2022/11/20 11:35:00;;;;;;;0.20;0.20;;;;;;;-1.83;78.63;100246.84;6175157;23;20024;-70
2022/11/20 11:37:35;;;;;;;0.20;0.20;;;;;;;-1.82;78.26;100245.00;6172194;23;20108;-67
2022/11/20 11:40:02;;;;;;;0.10;0.10;;;;;;;-1.89;78.21;100243.03;6145754;23;20401;-67
2022/11/20 11:42:29;;;;;;;0.10;0.10;;;;;;;-1.81;78.32;100246.66;6174817;23;20024;-67
2022/11/20 11:45:05;;;;;;;0.10;0.10;;;;;;;-1.74;78.42;100244.91;6183668;23;20032;-67